createdAt,value
2018-07-13T00:01:27.629Z,27.14
2018-07-13T00:03:58.230Z,26.98
2018-07-13T00:06:31.874Z,26.97
2018-07-13T00:09:02.324Z,26.94
2018-07-13T00:11:33.683Z,26.98
2018-07-13T00:14:19.755Z,26.96
2018-07-13T00:16:54.571Z,26.96
2018-07-13T00:19:27.986Z,26.84
2018-07-13T00:22:03.055Z,26.83
2018-07-13T00:24:41.960Z,26.89
2018-07-13T00:27:19.937Z,26.76
2018-07-13T00:35:22.083Z,26.60
2018-07-13T00:38:02.397Z,26.54
2018-07-13T00:40:37.219Z,26.44
2018-07-13T00:43:24.079Z,26.40
2018-07-13T00:46:07.805Z,26.36
2018-07-13T00:48:51.556Z,26.32
2018-07-13T00:51:27.789Z,26.42
2018-07-13T00:54:06.219Z,26.41
2018-07-13T00:56:45.212Z,26.42
2018-07-13T00:59:23.774Z,26.37
2018-07-13T01:01:56.316Z,26.18
2018-07-13T01:04:27.180Z,26.21
2018-07-13T01:06:57.778Z,26.27
2018-07-13T01:09:28.981Z,26.23
2018-07-13T01:11:59.600Z,26.16
2018-07-13T01:14:29.946Z,26.07
2018-07-13T01:17:01.469Z,25.98
2018-07-13T01:19:33.155Z,25.87
2018-07-13T01:22:03.453Z,25.91
2018-07-13T01:24:34.237Z,25.90
2018-07-13T01:27:07.727Z,25.93
2018-07-13T01:29:38.352Z,25.94
2018-07-13T01:32:08.956Z,25.97
2018-07-13T01:34:39.574Z,25.83
2018-07-13T01:37:10.351Z,25.73
2018-07-13T01:39:41.010Z,25.64
2018-07-13T01:42:12.123Z,25.70
2018-07-13T01:44:44.981Z,25.72
2018-07-13T01:47:15.536Z,25.66
2018-07-13T01:49:46.629Z,25.68
2018-07-13T01:52:17.183Z,25.62
2018-07-13T01:54:47.940Z,25.87
2018-07-13T01:57:20.068Z,25.64
2018-07-13T01:59:50.630Z,25.67
2018-07-13T02:02:23.196Z,25.57
2018-07-13T02:04:54.196Z,25.36
2018-07-13T02:07:25.483Z,25.25
2018-07-13T02:09:57.430Z,25.24
2018-07-13T02:12:28.240Z,25.25
2018-07-13T02:14:59.371Z,25.29
2018-07-13T02:17:30.216Z,25.18
2018-07-13T02:20:00.871Z,25.08
2018-07-13T02:22:31.199Z,24.98
2018-07-13T02:25:01.731Z,24.93
2018-07-13T02:27:32.135Z,24.89
2018-07-13T02:30:05.632Z,24.75
2018-07-13T02:32:36.805Z,24.64
2018-07-13T02:35:07.973Z,24.65
2018-07-13T02:37:38.982Z,24.69
2018-07-13T02:40:09.770Z,24.69
2018-07-13T02:42:41.102Z,24.63
2018-07-13T02:45:14.142Z,24.60
2018-07-13T02:47:44.711Z,24.81
2018-07-13T02:50:16.251Z,24.86
2018-07-13T02:52:47.893Z,24.99
2018-07-13T02:55:20.204Z,25.06
2018-07-13T02:57:51.125Z,25.12
2018-07-13T03:00:22.162Z,25.14
2018-07-13T03:02:52.894Z,25.16
2018-07-13T03:05:27.193Z,25.28
2018-07-13T03:07:57.800Z,25.19
2018-07-13T03:10:28.701Z,25.16
2018-07-13T03:12:59.762Z,25.33
2018-07-13T03:15:30.400Z,25.15
2018-07-13T03:18:01.030Z,25.13
2018-07-13T03:20:31.802Z,24.97
2018-07-13T03:23:03.066Z,24.89
2018-07-13T03:25:34.112Z,24.90
2018-07-13T03:28:04.841Z,24.89
2018-07-13T03:30:36.993Z,24.81
2018-07-13T03:33:07.579Z,24.85
2018-07-13T03:35:38.978Z,24.92
2018-07-13T03:38:09.673Z,24.90
2018-07-13T03:40:40.268Z,24.94
2018-07-13T03:43:10.890Z,24.86
2018-07-13T03:45:41.427Z,24.92
2018-07-13T03:48:12.562Z,25.03
2018-07-13T03:50:43.211Z,25.07
2018-07-13T03:53:13.916Z,25.14
2018-07-13T03:55:44.809Z,25.09
2018-07-13T03:58:16.105Z,25.26
2018-07-13T04:00:46.667Z,25.29
2018-07-13T04:03:18.550Z,25.37
2018-07-13T04:05:49.166Z,25.56
2018-07-13T04:08:20.532Z,25.91
2018-07-13T04:10:51.301Z,26.04
2018-07-13T04:13:21.895Z,26.07
2018-07-13T04:15:52.982Z,26.10
2018-07-13T04:18:25.052Z,26.18
2018-07-13T04:20:55.968Z,26.22
2018-07-13T04:23:27.234Z,26.31
2018-07-13T04:25:58.741Z,26.38
2018-07-13T04:28:29.473Z,26.57
2018-07-13T04:31:00.385Z,26.10
2018-07-13T04:33:31.116Z,26.75
2018-07-13T04:36:01.809Z,26.98
2018-07-13T04:38:33.082Z,27.08
2018-07-13T04:41:03.783Z,26.83
2018-07-13T04:43:34.626Z,26.69
2018-07-13T04:46:05.937Z,26.58
2018-07-13T04:48:36.620Z,26.50
2018-07-13T04:51:09.619Z,26.50
2018-07-13T04:53:40.527Z,26.50
2018-07-13T04:56:11.215Z,26.65
2018-07-13T04:58:42.160Z,26.77
2018-07-13T05:01:12.854Z,26.85
2018-07-13T05:03:44.554Z,26.95
2018-07-13T05:06:18.877Z,27.10
2018-07-13T05:08:51.400Z,27.25
2018-07-13T05:11:22.152Z,27.39
2018-07-13T05:13:52.960Z,27.39
2018-07-13T05:16:26.038Z,27.43
2018-07-13T05:18:57.493Z,27.32
2018-07-13T05:21:29.321Z,27.33
2018-07-13T05:24:00.670Z,27.49
2018-07-13T05:26:34.278Z,27.47
2018-07-13T05:31:29.829Z,27.67
2018-07-13T05:34:00.960Z,27.90
2018-07-13T05:36:32.636Z,27.80
2018-07-13T05:39:03.112Z,27.80
2018-07-13T05:41:34.162Z,27.67
2018-07-13T05:44:05.139Z,27.58
2018-07-13T05:46:35.859Z,27.61
2018-07-13T05:49:07.536Z,27.99
2018-07-13T05:51:38.978Z,28.48
2018-07-13T05:54:09.650Z,29.24
2018-07-13T05:56:41.228Z,29.71
2018-07-13T05:59:12.893Z,29.65
2018-07-13T06:01:44.220Z,28.97
2018-07-13T06:04:19.535Z,28.88
2018-07-13T06:06:50.403Z,28.87
2018-07-13T06:09:21.547Z,29.18
2018-07-13T06:12:21.745Z,28.76
2018-07-13T06:14:52.864Z,29.30
2018-07-13T06:17:25.896Z,29.80
2018-07-13T06:19:58.378Z,30.49
2018-07-13T06:22:34.215Z,30.80
2018-07-13T06:25:07.146Z,31.23
2018-07-13T06:27:37.473Z,32.27
2018-07-13T06:30:08.206Z,33.04
2018-07-13T06:32:45.307Z,33.57
2018-07-13T06:35:16.093Z,34.09
2018-07-13T06:37:50.745Z,34.76
2018-07-13T06:40:22.081Z,35.42
2018-07-13T06:43:04.813Z,36.63
2018-07-13T06:45:44.683Z,37.09
2018-07-13T06:48:15.033Z,37.47
2018-07-13T06:50:48.774Z,37.86
2018-07-13T06:53:25.242Z,38.59
2018-07-13T06:55:57.192Z,38.88
2018-07-13T06:58:42.597Z,39.17
2018-07-13T07:01:13.817Z,38.60
2018-07-13T07:08:05.438Z,38.46
2018-07-13T07:10:36.640Z,38.96
2018-07-13T07:13:19.797Z,39.66
2018-07-13T07:15:53.599Z,39.74
2018-07-13T07:18:27.080Z,40.09
2018-07-13T07:21:15.243Z,40.40
2018-07-13T07:23:48.899Z,40.27
2018-07-13T07:26:21.321Z,39.83
2018-07-13T07:28:56.893Z,40.13
2018-07-13T07:31:29.684Z,40.43
2018-07-13T07:34:07.545Z,39.69
2018-07-13T07:36:41.306Z,39.54
2018-07-13T07:39:24.427Z,39.53
2018-07-13T07:42:08.805Z,39.47
2018-07-13T07:44:44.144Z,39.56
2018-07-13T07:47:17.806Z,39.05
2018-07-13T07:49:50.578Z,38.83
2018-07-13T07:52:23.100Z,38.82
2018-07-13T07:54:55.718Z,38.83
2018-07-13T07:57:27.214Z,39.12
2018-07-13T07:59:59.801Z,39.28
2018-07-13T08:02:32.253Z,39.67
2018-07-13T08:05:12.952Z,39.84
2018-07-13T08:07:48.223Z,39.81
2018-07-13T08:10:20.143Z,39.73
2018-07-13T08:13:01.326Z,39.28
2018-07-13T08:16:37.496Z,39.29
2018-07-13T08:19:10.839Z,39.55
2018-07-13T08:21:46.680Z,39.68
2018-07-13T08:24:23.179Z,40.02
2018-07-13T08:27:01.245Z,40.16
2018-07-13T08:29:36.767Z,40.45
2018-07-13T08:32:16.354Z,40.40
2018-07-13T08:34:46.923Z,39.88
2018-07-13T08:37:18.799Z,39.84
2018-07-13T08:39:53.075Z,40.41
2018-07-13T08:42:24.009Z,40.99
2018-07-13T08:44:57.976Z,40.77
2018-07-13T08:47:31.563Z,40.52
2018-07-13T08:50:05.291Z,40.34
2018-07-13T08:52:41.066Z,40.25
2018-07-13T08:55:15.051Z,40.38
2018-07-13T08:57:56.992Z,40.37
2018-07-13T09:00:29.157Z,40.66
2018-07-13T09:03:04.613Z,40.20
2018-07-13T09:05:37.027Z,40.15
2018-07-13T09:08:12.387Z,40.20
2018-07-13T09:10:46.939Z,40.34
2018-07-13T09:13:20.389Z,39.62
2018-07-13T09:16:07.253Z,39.39
2018-07-13T09:18:41.336Z,39.78
2018-07-13T09:21:15.371Z,39.11
2018-07-13T09:23:46.785Z,39.22
2018-07-13T09:26:19.262Z,39.47
2018-07-13T09:28:54.420Z,39.64
2018-07-13T09:31:31.218Z,40.14
2018-07-13T09:34:06.865Z,40.17
2018-07-13T09:36:40.179Z,40.24
2018-07-13T09:39:12.706Z,40.53
2018-07-13T09:41:44.269Z,40.55
2018-07-13T09:44:20.450Z,40.64
2018-07-13T09:47:11.426Z,40.73
2018-07-13T09:49:44.883Z,40.66
2018-07-13T09:52:21.735Z,40.70
2018-07-13T09:54:54.902Z,40.32
2018-07-13T10:07:59.154Z,40.09
2018-07-13T10:10:31.048Z,39.70
2018-07-13T10:13:05.496Z,39.89
2018-07-13T10:15:37.763Z,40.02
2018-07-13T10:18:11.920Z,39.67
2018-07-13T10:20:46.678Z,40.17
2018-07-13T10:23:18.012Z,40.13
2018-07-13T10:26:09.568Z,40.26
2018-07-13T10:28:41.895Z,40.00
2018-07-13T10:31:14.834Z,40.21
2018-07-13T10:33:49.070Z,40.65
2018-07-13T10:36:22.455Z,40.54
2018-07-13T10:41:33.402Z,40.93
2018-07-13T10:44:06.465Z,40.67
2018-07-13T10:46:41.700Z,40.36
2018-07-13T10:49:13.895Z,40.35
2018-07-13T10:51:47.800Z,40.51
2018-07-13T10:54:22.653Z,40.21
2018-07-13T10:56:58.467Z,40.54
2018-07-13T10:59:33.175Z,40.79
2018-07-13T11:02:07.316Z,41.40
2018-07-13T11:04:40.569Z,41.21
2018-07-13T11:07:12.652Z,41.24
2018-07-13T11:09:44.224Z,41.23
2018-07-13T11:12:24.188Z,41.61
2018-07-13T11:14:55.683Z,41.78
2018-07-13T11:17:28.362Z,42.26
2018-07-13T11:20:05.259Z,42.78
2018-07-13T11:22:41.105Z,43.05
2018-07-13T11:25:14.406Z,42.88
2018-07-13T11:27:45.848Z,42.12
2018-07-13T11:30:18.879Z,41.64
2018-07-13T11:32:51.873Z,41.23
2018-07-13T11:35:27.075Z,40.93
2018-07-13T11:38:10.626Z,40.58
2018-07-13T11:40:42.840Z,40.23
2018-07-13T11:43:14.746Z,39.97
2018-07-13T11:45:48.016Z,39.89
2018-07-13T11:48:21.371Z,39.60
2018-07-13T11:50:54.915Z,39.29
2018-07-13T11:53:27.572Z,39.84
2018-07-13T11:55:59.375Z,40.13
2018-07-13T11:58:34.943Z,40.36
2018-07-13T12:01:06.679Z,40.77
2018-07-13T12:03:38.765Z,41.08
2018-07-13T12:06:10.735Z,41.12
2018-07-13T12:08:42.235Z,41.19
2018-07-13T12:11:52.832Z,41.71
2018-07-13T12:19:32.750Z,41.66
2018-07-13T12:22:06.326Z,41.52
2018-07-13T12:24:45.359Z,41.39
2018-07-13T12:27:29.100Z,41.23
2018-07-13T12:30:18.943Z,41.20
2018-07-13T12:32:55.934Z,41.61
2018-07-13T12:35:44.453Z,42.08
2018-07-13T12:38:36.291Z,43.02
2018-07-13T12:41:21.299Z,43.82
2018-07-13T12:43:57.985Z,44.29
2018-07-13T12:46:36.975Z,44.46
2018-07-13T12:49:11.379Z,44.63
2018-07-13T12:51:45.952Z,44.64
2018-07-13T12:54:22.918Z,44.78
2018-07-13T13:25:43.175Z,41.00
2018-07-13T13:28:34.039Z,40.67
2018-07-13T13:31:18.276Z,40.56
2018-07-13T13:33:53.579Z,40.25
2018-07-13T13:36:27.303Z,40.69
2018-07-13T13:39:01.571Z,40.85
2018-07-13T13:41:39.423Z,40.83
2018-07-13T13:44:12.456Z,40.93
2018-07-13T13:46:48.630Z,41.20
2018-07-13T13:49:21.720Z,41.48
2018-07-13T13:51:59.212Z,41.19
2018-07-13T13:54:33.477Z,40.71
2018-07-13T13:57:07.907Z,40.41
2018-07-13T13:59:39.501Z,39.79
2018-07-13T14:02:11.878Z,39.83
2018-07-13T14:04:48.558Z,39.69
2018-07-13T14:07:20.835Z,39.51
2018-07-13T14:09:55.521Z,39.48
2018-07-13T14:12:30.611Z,39.27
2018-07-13T14:15:08.507Z,38.40
2018-07-13T14:17:41.981Z,36.41
2018-07-13T14:20:16.287Z,34.47
2018-07-13T14:22:53.619Z,33.68
2018-07-13T14:25:25.831Z,33.58
2018-07-13T14:28:00.584Z,33.49
2018-07-13T14:30:33.864Z,33.48
2018-07-13T14:33:06.635Z,33.40
2018-07-13T14:35:38.336Z,33.86
2018-07-13T14:38:13.860Z,33.93
2018-07-13T14:40:46.758Z,33.95
2018-07-13T14:43:20.139Z,34.29
2018-07-13T14:45:53.201Z,34.60
2018-07-13T14:48:26.446Z,35.09
2018-07-13T14:51:01.583Z,35.91
2018-07-13T14:53:33.259Z,35.93
2018-07-13T14:56:07.500Z,35.96
2018-07-13T14:58:39.421Z,35.97
2018-07-13T15:01:12.461Z,35.89
2018-07-13T15:03:44.182Z,35.92
2018-07-13T15:06:17.999Z,35.91
2018-07-13T15:08:52.459Z,35.73
2018-07-13T15:11:26.337Z,35.92
2018-07-13T15:13:58.720Z,35.87
2018-07-13T15:16:33.692Z,36.06
2018-07-13T15:19:08.752Z,35.93
2018-07-13T15:21:43.466Z,35.69
2018-07-13T15:24:24.802Z,35.42
2018-07-13T15:26:59.252Z,35.95
2018-07-13T15:29:49.583Z,36.48
2018-07-13T15:32:21.230Z,36.67
2018-07-13T15:35:03.648Z,36.61
2018-07-13T15:37:40.457Z,36.64
2018-07-13T15:40:13.436Z,36.84
2018-07-13T15:42:49.542Z,37.19
2018-07-13T15:45:21.463Z,37.52
2018-07-13T15:47:54.516Z,37.16
2018-07-13T15:53:38.358Z,37.43
2018-07-13T15:56:13.004Z,38.05
2018-07-13T15:58:46.448Z,38.57
2018-07-13T16:01:17.947Z,38.84
2018-07-13T16:03:51.953Z,38.91
2018-07-13T16:06:28.971Z,39.22
2018-07-13T16:09:00.588Z,39.36
2018-07-13T16:11:33.007Z,39.06
2018-07-13T16:14:06.586Z,38.56
2018-07-13T16:16:40.840Z,38.18
2018-07-13T16:19:12.343Z,37.65
2018-07-13T16:21:46.567Z,37.31
2018-07-13T16:24:18.674Z,37.15
2018-07-13T16:26:50.364Z,36.91
2018-07-13T16:29:21.955Z,36.66
2018-07-13T16:31:53.795Z,36.40
2018-07-13T16:34:26.195Z,36.10
2018-07-13T16:36:58.402Z,35.70
2018-07-13T16:39:29.900Z,35.48
2018-07-13T16:44:39.887Z,35.70
2018-07-13T16:47:14.772Z,36.56
2018-07-13T16:49:47.453Z,37.09
2018-07-13T16:52:19.064Z,37.39
2018-07-13T16:54:55.380Z,37.78
2018-07-13T16:57:26.777Z,38.07
2018-07-13T17:00:00.479Z,38.52
2018-07-13T17:02:32.599Z,38.31
2018-07-13T17:05:09.712Z,37.80
2018-07-13T17:07:43.569Z,37.35
2018-07-13T17:10:15.980Z,37.07
2018-07-13T17:12:49.253Z,36.84
2018-07-13T17:15:22.012Z,36.76
2018-07-13T17:17:54.254Z,36.56
2018-07-13T17:20:30.557Z,36.52
2018-07-13T17:23:05.665Z,36.47
2018-07-13T17:25:39.814Z,36.50
2018-07-13T17:28:11.228Z,36.41
2018-07-13T17:30:44.693Z,36.15
2018-07-13T17:33:18.557Z,35.89
2018-07-13T17:35:50.784Z,35.66
2018-07-13T17:38:23.141Z,35.46
2018-07-13T17:40:56.557Z,35.38
2018-07-13T17:43:28.041Z,35.33
2018-07-13T17:46:00.933Z,35.27
2018-07-13T17:48:33.608Z,35.17
2018-07-13T17:51:07.619Z,35.27
2018-07-13T17:53:42.243Z,35.32
2018-07-13T17:56:14.533Z,35.27
2018-07-13T17:58:49.309Z,35.30
2018-07-13T18:01:22.127Z,35.35
2018-07-13T18:03:57.934Z,35.37
2018-07-13T18:06:32.587Z,35.30
2018-07-13T18:09:04.851Z,35.22
2018-07-13T18:11:36.921Z,35.09
2018-07-13T18:14:09.558Z,34.97
2018-07-13T18:16:41.339Z,34.95
2018-07-13T18:19:17.323Z,34.93
2018-07-13T18:21:48.697Z,34.90
2018-07-13T18:24:21.620Z,34.84
2018-07-13T18:26:53.564Z,34.87
2018-07-13T18:29:29.523Z,34.86
2018-07-13T18:32:00.918Z,34.77
2018-07-13T18:34:35.022Z,34.65
2018-07-13T18:37:06.455Z,34.68
2018-07-13T18:39:39.024Z,34.50
2018-07-13T18:42:11.643Z,34.61
2018-07-13T18:44:43.413Z,34.52
2018-07-13T18:47:16.396Z,33.82
2018-07-13T18:49:48.759Z,34.33
2018-07-13T18:52:23.499Z,34.25
2018-07-13T18:54:56.550Z,34.13
2018-07-13T18:57:30.032Z,34.03
2018-07-13T19:00:02.448Z,33.77
2018-07-13T19:02:36.825Z,33.58
2018-07-13T19:05:10.048Z,33.52
2018-07-13T19:07:48.301Z,33.46
2018-07-13T19:10:21.065Z,33.43
2018-07-13T19:12:56.341Z,33.29
2018-07-13T19:15:28.756Z,33.13
2018-07-13T19:18:00.848Z,33.12
2018-07-13T19:20:33.415Z,32.94
2018-07-13T19:23:09.644Z,32.93
2018-07-13T19:25:44.490Z,32.64
2018-07-13T19:28:18.491Z,32.41
2018-07-13T19:30:53.590Z,32.39
2018-07-13T19:33:26.944Z,32.40
2018-07-13T19:36:04.169Z,32.31
2018-07-13T19:38:43.440Z,32.28
2018-07-13T19:41:18.205Z,32.13
2018-07-13T19:43:53.154Z,31.96
2018-07-13T19:46:33.548Z,31.83
2018-07-13T19:49:07.844Z,31.67
2018-07-13T19:51:41.383Z,31.60
2018-07-13T19:54:14.887Z,31.67
2018-07-13T19:56:46.360Z,31.69
2018-07-13T19:59:18.452Z,31.53
2018-07-13T20:01:58.146Z,31.33
2018-07-13T20:04:39.411Z,31.37
2018-07-13T20:07:13.641Z,31.35
2018-07-13T20:09:51.484Z,31.20
2018-07-13T20:12:24.684Z,31.05
2018-07-13T20:15:01.090Z,31.06
2018-07-13T20:17:59.603Z,31.10
2018-07-13T20:20:40.434Z,31.04
2018-07-13T20:23:19.502Z,30.91
2018-07-13T20:25:57.081Z,30.82
2018-07-13T20:28:36.541Z,30.65
2018-07-13T20:31:10.019Z,30.71
2018-07-13T20:33:46.469Z,30.52
2018-07-13T20:36:22.451Z,30.54
2018-07-13T20:38:56.553Z,30.47
2018-07-13T20:41:32.223Z,30.65
2018-07-13T20:46:48.936Z,30.21
2018-07-13T20:49:21.821Z,30.03
2018-07-13T20:51:53.887Z,30.07
2018-07-13T20:54:27.879Z,29.99
2018-07-13T20:57:00.576Z,29.97
2018-07-13T20:59:32.004Z,30.01
2018-07-13T21:02:03.339Z,29.93
2018-07-13T21:04:39.493Z,29.99
2018-07-13T21:07:11.305Z,29.92
2018-07-13T21:09:50.645Z,29.83
2018-07-13T21:12:24.346Z,29.78
2018-07-13T21:15:00.801Z,29.80
2018-07-13T21:17:34.534Z,29.68
2018-07-13T21:20:05.973Z,29.71
2018-07-13T21:22:41.893Z,29.66
2018-07-13T21:25:14.220Z,29.64
2018-07-13T21:27:50.436Z,29.45
2018-07-13T21:30:26.521Z,29.63
2018-07-13T21:32:58.962Z,29.60
2018-07-13T21:35:31.284Z,29.52
2018-07-13T21:38:11.850Z,29.45
2018-07-13T21:40:44.983Z,29.45
2018-07-13T21:43:19.204Z,29.45
2018-07-13T21:45:50.865Z,29.39
2018-07-13T21:48:22.441Z,29.49
2018-07-13T21:50:57.608Z,29.40
2018-07-13T21:53:32.404Z,29.30
2018-07-13T21:56:06.168Z,29.14
2018-07-13T21:58:39.271Z,29.05
2018-07-13T22:01:17.118Z,29.00
2018-07-13T22:04:22.240Z,28.98
2018-07-13T22:07:04.213Z,28.97
2018-07-13T22:09:39.208Z,28.95
2018-07-13T22:12:13.033Z,28.97
2018-07-13T22:14:46.995Z,29.00
2018-07-13T22:17:19.794Z,29.01
2018-07-13T22:19:51.635Z,28.94
2018-07-13T22:22:24.216Z,28.93
2018-07-13T22:24:55.860Z,29.02
2018-07-13T22:27:28.706Z,28.89
2018-07-13T22:30:05.299Z,28.97
2018-07-13T22:32:37.273Z,28.88
2018-07-13T22:35:14.366Z,28.87
2018-07-13T22:40:11.944Z,28.86
2018-07-13T22:42:45.071Z,28.72
2018-07-13T22:45:17.436Z,28.73
2018-07-13T22:47:50.196Z,28.72
2018-07-13T22:50:21.680Z,28.75
2018-07-13T22:52:54.748Z,28.72
2018-07-13T22:55:26.260Z,28.68
2018-07-13T22:58:00.517Z,28.71
2018-07-13T23:00:34.852Z,28.66
2018-07-13T23:03:08.628Z,28.56
2018-07-13T23:05:40.739Z,28.55
2018-07-13T23:08:11.294Z,28.56
2018-07-13T23:10:43.360Z,28.54
2018-07-13T23:13:16.217Z,28.52
2018-07-13T23:15:49.120Z,28.54
2018-07-13T23:18:29.603Z,28.45
2018-07-13T23:21:02.043Z,28.49
2018-07-13T23:23:37.514Z,28.37
2018-07-13T23:26:10.109Z,28.36
2018-07-13T23:28:43.878Z,28.47
2018-07-13T23:31:16.784Z,28.54
2018-07-13T23:33:49.299Z,28.40
2018-07-13T23:36:19.796Z,28.30
2018-07-13T23:38:52.737Z,28.24
2018-07-13T23:41:23.701Z,28.30
2018-07-13T23:43:55.212Z,28.38
2018-07-13T23:46:26.715Z,28.39
2018-07-13T23:48:58.390Z,28.41
2018-07-13T23:51:28.928Z,28.27
2018-07-13T23:54:02.047Z,28.37
2018-07-13T23:56:34.780Z,28.35
2018-07-13T23:59:05.346Z,28.34
